^^
Grace C. Lehan Memorial Weather Station Historical Data
Daily Summary for January 21, 2021 Units:  English    Metric   Both
Daily Weekly Monthly Yearly
  High: Low: Average:
Temperature: 37.9 °F 19.9 °F 28.1 °F
Dew Point: 18.2 °F 12.4 °F 15 °F
Humidity: 77% 40.3% 59%
Wind Speed: 9mph 0mph 2.5mph
Wind Gust: 15mph - -
Wind- - WNW
Pressure: 30.47 in 30.23 in -
Precipitation: 0.03 in    
 
 
Tabular Data for January 21, 2021
Time Temperature Dew Point Pressure Wind Wind Speed Wind Gust Humidity Rainfall Rate (Hourly) solar
00:04 25.2 °F 14.4 °F 30.23 in NW 3.5 mph 12 mph 63% 0.00 in 0 W/m2
00:09 25.2 °F 14.4 °F 30.23 in NW 1.3 mph 12 mph 63% 0.00 in 0 W/m2
00:14 25.2 °F 14.4 °F 30.23 in NW 3.7 mph 12 mph 63% 0.00 in 0 W/m2
00:19 25.1 °F 14.3 °F 30.24 in NW 4.2 mph 12 mph 63% 0.00 in 0 W/m2
00:24 25 °F 14.2 °F 30.24 in NW 3 mph 12 mph 63% 0.00 in 0 W/m2
00:29 24.9 °F 14.1 °F 30.24 in WNW 5.1 mph 12 mph 63% 0.00 in 0 W/m2
00:34 24.9 °F 14.2 °F 30.25 in WNW 5 mph 12 mph 63.2% 0.00 in 0 W/m2
00:39 24.9 °F 14.4 °F 30.25 in NW 5.6 mph 12 mph 64% 0.00 in 0 W/m2
00:44 24.8 °F 14.4 °F 30.25 in WNW 4.6 mph 12 mph 64% 0.00 in 0 W/m2
00:49 24.8 °F 14.4 °F 30.25 in WNW 3.8 mph 12 mph 64% 0.00 in 0 W/m2
00:54 24.8 °F 14.3 °F 30.25 in WNW 2.9 mph 12 mph 64% 0.00 in 0 W/m2
00:59 24.6 °F 14.3 °F 30.25 in WNW 3.8 mph 12 mph 64.4% 0.00 in 0 W/m2
01:04 24.5 °F 14.4 °F 30.25 in WNW 2.4 mph 12 mph 65% 0.00 in 0 W/m2
01:09 24.4 °F 14.3 °F 30.26 in WNW 1.6 mph 8 mph 65% 0.00 in 0 W/m2
01:14 24.2 °F 14.2 °F 30.26 in WNW 2.7 mph 8 mph 65% 0.00 in 0 W/m2
01:19 24.1 °F 14.4 °F 30.26 in NW 2.4 mph 11 mph 66% 0.00 in 0 W/m2
01:24 23.9 °F 14.3 °F 30.27 in WNW 2.1 mph 11 mph 66% 0.00 in 0 W/m2
01:29 23.8 °F 14.3 °F 30.27 in WNW 2.9 mph 11 mph 66.4% 0.00 in 0 W/m2
01:34 23.8 °F 14.4 °F 30.27 in WNW 6.1 mph 13 mph 67% 0.00 in 0 W/m2
01:39 23.8 °F 14.6 °F 30.27 in WNW 6.9 mph 13 mph 67.6% 0.00 in 0 W/m2
01:44 23.8 °F 14.8 °F 30.27 in WNW 6.2 mph 13 mph 68% 0.00 in 0 W/m2
01:49 23.8 °F 14.8 °F 30.27 in WNW 6.5 mph 14 mph 68% 0.00 in 0 W/m2
01:54 23.8 °F 14.8 °F 30.27 in WNW 5.8 mph 14 mph 68% 0.00 in 0 W/m2
01:59 23.7 °F 14.7 °F 30.28 in WNW 5.1 mph 14 mph 68% 0.00 in 0 W/m2
02:04 23.6 °F 14.7 °F 30.28 in WNW 5.5 mph 14 mph 68.3% 0.00 in 0 W/m2
02:09 23.6 °F 14.9 °F 30.28 in WNW 6.2 mph 13 mph 69% 0.00 in 0 W/m2
02:14 23.5 °F 14.8 °F 30.29 in WNW 6.6 mph 13 mph 69% 0.00 in 0 W/m2
02:19 23.4 °F 14.8 °F 30.29 in WNW 6.3 mph 13 mph 69% 0.00 in 0 W/m2
02:24 23.3 °F 15 °F 30.29 in WNW 4.4 mph 13 mph 70% 0.00 in 0 W/m2
02:29 23.2 °F 14.9 °F 30.29 in WNW 6.9 mph 13 mph 70% 0.00 in 0 W/m2
02:34 23.1 °F 14.8 °F 30.30 in WNW 4.5 mph 13 mph 70% 0.00 in 0 W/m2
02:39 23.1 °F 14.9 °F 30.30 in WNW 5.4 mph 12 mph 70.5% 0.00 in 0 W/m2
02:44 23 °F 15 °F 30.30 in WNW 4.5 mph 12 mph 70.9% 0.00 in 0 W/m2
02:49 22.9 °F 14.9 °F 30.30 in WNW 4.9 mph 12 mph 71% 0.00 in 0 W/m2
02:54 22.8 °F 14.8 °F 30.30 in WNW 6.4 mph 15 mph 71% 0.00 in 0 W/m2
02:59 22.8 °F 14.9 °F 30.30 in WNW 5.1 mph 15 mph 71.3% 0.00 in 0 W/m2
03:04 22.8 °F 15 °F 30.31 in WNW 5.6 mph 15 mph 71.5% 0.00 in 0 W/m2
03:09 22.8 °F 15.1 °F 30.31 in WNW 4.7 mph 14 mph 72% 0.00 in 0 W/m2
03:14 22.8 °F 15.1 °F 30.31 in WNW 3.3 mph 14 mph 72% 0.00 in 0 W/m2
03:19 22.7 °F 15.1 °F 30.31 in WNW 6.6 mph 14 mph 72% 0.00 in 0 W/m2
03:24 22.7 °F 15.1 °F 30.31 in WNW 5.4 mph 14 mph 72% 0.00 in 0 W/m2
03:29 22.7 °F 15.1 °F 30.31 in WNW 3.7 mph 14 mph 72% 0.00 in 0 W/m2
03:34 22.7 °F 15.1 °F 30.31 in WNW 4 mph 14 mph 72% 0.00 in 0 W/m2
03:39 22.7 °F 15 °F 30.32 in WNW 2.7 mph 10 mph 72% 0.00 in 0 W/m2
03:44 22.6 °F 14.9 °F 30.32 in NW 2.6 mph 10 mph 72% 0.00 in 0 W/m2
03:49 22.5 °F 14.8 °F 30.32 in NNW 2 mph 10 mph 72% 0.00 in 0 W/m2
03:54 22.4 °F 14.7 °F 30.32 in NNW 2.2 mph 10 mph 72% 0.00 in 0 W/m2
03:59 22.2 °F 14.6 °F 30.32 in NW 3.7 mph 10 mph 72.1% 0.00 in 0 W/m2
04:04 22.1 °F 14.8 °F 30.32 in NW 1.2 mph 5 mph 73% 0.00 in 0 W/m2
04:09 22.1 °F 14.8 °F 30.32 in NW 2 mph 9 mph 73% 0.00 in 0 W/m2
04:14 22.1 °F 14.8 °F 30.32 in WNW 3.4 mph 9 mph 73% 0.00 in 0 W/m2
04:19 22.1 °F 14.8 °F 30.33 in WNW 4.1 mph 11 mph 73% 0.00 in 0 W/m2
04:24 22.1 °F 14.7 °F 30.33 in WNW 3.3 mph 11 mph 73% 0.00 in 0 W/m2
04:29 22 °F 14.7 °F 30.34 in WNW 3.3 mph 11 mph 73% 0.00 in 0 W/m2
04:34 22 °F 14.7 °F 30.34 in WNW 4.1 mph 11 mph 73% 0.00 in 0 W/m2
04:39 22 °F 14.7 °F 30.34 in WNW 3.5 mph 7 mph 73% 0.00 in 0 W/m2
04:44 21.9 °F 14.6 °F 30.34 in WNW 2.7 mph 7 mph 73% 0.00 in 0 W/m2
04:49 21.9 °F 14.6 °F 30.35 in WNW 1.8 mph 7 mph 73% 0.00 in 0 W/m2
04:54 21.8 °F 14.5 °F 30.35 in WNW 0.6 mph 7 mph 73% 0.00 in 0 W/m2
04:59 21.6 °F 14.3 °F 30.35 in WNW 1.1 mph 7 mph 73% 0.00 in 0 W/m2
05:04 21.5 °F 14.2 °F 30.35 in Calm   7 mph 73% 0.00 in 0 W/m2
05:09 21.4 °F 14.1 °F 30.36 in WNW 1.1 mph 6 mph 73.2% 0.00 in 0 W/m2
05:14 21.2 °F 14.2 °F 30.36 in WNW 1.3 mph 6 mph 73.7% 0.00 in 0 W/m2
05:19 21.1 °F 14.2 °F 30.36 in WNW 2.6 mph 6 mph 74% 0.00 in 0 W/m2
05:24 21.1 °F 14.1 °F 30.36 in WNW 3.3 mph 7 mph 74% 0.00 in 0 W/m2
05:29 21 °F 14 °F 30.36 in WNW 4.3 mph 11 mph 74% 0.00 in 0 W/m2
05:34 21 °F 14.3 °F 30.37 in WNW 3.4 mph 11 mph 74.9% 0.00 in 0 W/m2
05:39 20.9 °F 14.3 °F 30.38 in WNW 4.8 mph 9 mph 75% 0.00 in 0 W/m2
05:44 21 °F 14.3 °F 30.38 in WNW 3.6 mph 9 mph 75% 0.00 in 0 W/m2
05:49 21 °F 14.3 °F 30.37 in WNW 4.1 mph 9 mph 75% 0.00 in 0 W/m2
05:54 21 °F 14.3 °F 30.38 in WNW 3.6 mph 9 mph 75% 0.00 in 0 W/m2
05:59 21 °F 14.3 °F 30.38 in WNW 3 mph 9 mph 75% 0.00 in 0 W/m2
06:04 21 °F 14.3 °F 30.38 in WNW 2.3 mph 9 mph 75% 0.00 in 0 W/m2
06:09 20.9 °F 14.3 °F 30.38 in West 2.4 mph 6 mph 75% 0.00 in 0 W/m2
06:14 20.9 °F 14.2 °F 30.39 in West 1.1 mph 6 mph 75% 0.00 in 0 W/m2
06:19 20.8 °F 14.1 °F 30.39 in West 1.3 mph 6 mph 75% 0.00 in 0 W/m2
06:24 20.6 °F 13.7 °F 30.39 in West 0.8 mph 6 mph 74.3% 0.00 in 0 W/m2
06:29 20.5 °F 13.8 °F 30.39 in West 2.7 mph 6 mph 75% 0.00 in 0 W/m2
06:34 20.3 °F 13.7 °F 30.39 in West 0.9 mph 6 mph 75% 0.00 in 0 W/m2
06:39 20.3 °F 13.6 °F 30.39 in West 0.1 mph 4 mph 75% 0.00 in 5 W/m2
06:44 20.2 °F 13.8 °F 30.40 in Calm   4 mph 75.8% 0.00 in 7 W/m2
06:49 20.2 °F 13.8 °F 30.40 in Calm   4 mph 75.9% 0.00 in 12 W/m2
06:54 20.1 °F 13.5 °F 30.40 in Calm   4 mph 75.1% 0.00 in 18 W/m2
06:59 20 °F 13.4 °F 30.40 in West 0.3 mph 4 mph 75.2% 0.00 in 19 W/m2
07:04 19.9 °F 13.6 °F 30.41 in WNW 2.4 mph 7 mph 76% 0.00 in 40 W/m2
07:09 20.1 °F 14 °F 30.41 in WNW 3.1 mph 7 mph 76.8% 0.00 in 58 W/m2
07:14 20.6 °F 14.5 °F 30.41 in WNW 0.7 mph 7 mph 77% 0.00 in 60 W/m2
07:19 21.1 °F 14.9 °F 30.42 in WNW 0.9 mph 9 mph 76.6% 0.00 in 49 W/m2
07:24 21.5 °F 15 °F 30.42 in West 0.6 mph 9 mph 75.4% 0.00 in 49 W/m2
07:29 21.8 °F 15 °F 30.42 in West 0.1 mph 9 mph 74.7% 0.00 in 77 W/m2
07:34 21.9 °F 14.9 °F 30.42 in West 0.5 mph 9 mph 74% 0.00 in 67 W/m2
07:39 22 °F 15 °F 30.43 in West 1.9 mph 6 mph 74% 0.00 in 35 W/m2
07:44 22.1 °F 15.1 °F 30.43 in West 0.9 mph 6 mph 74% 0.00 in 44 W/m2
07:49 22.2 °F 15.2 °F 30.43 in WNW 1.7 mph 11 mph 74% 0.00 in 44 W/m2
07:54 22.4 °F 15.4 °F 30.44 in WNW 2.4 mph 11 mph 74% 0.00 in 65 W/m2
07:59 22.6 °F 15.4 °F 30.44 in WNW 4.5 mph 11 mph 73.5% 0.00 in 81 W/m2
08:00 22.7 °F 15.4 °F 30.44 in WNW 5.5 mph 11 mph 73% 0.00 in 76 W/m2
08:09 23.4 °F 16.1 °F 30.44 in WNW 1.8 mph 6 mph 73% 0.00 in 74 W/m2
08:14 23.9 °F 16.1 °F 30.44 in WNW 3 mph 7 mph 71.7% 0.00 in 179 W/m2
08:19 24.3 °F 16.2 °F 30.44 in WNW 4.8 mph 10 mph 70.7% 0.00 in 260 W/m2
08:24 24.8 °F 16.4 °F 30.44 in WNW 4.1 mph 10 mph 70% 0.00 in 281 W/m2
08:29 25.5 °F 16.8 °F 30.44 in WNW 2.1 mph 10 mph 69% 0.00 in 301 W/m2
08:34 26.1 °F 17 °F 30.45 in WNW 1.5 mph 10 mph 68% 0.00 in 262 W/m2
08:39 26.7 °F 17.1 °F 30.45 in NNW 2.8 mph 9 mph 66.5% 0.00 in 227 W/m2
08:44 27.3 °F 17.1 °F 30.45 in NW 1 mph 9 mph 65% 0.00 in 251 W/m2
08:49 27.8 °F 17.3 °F 30.46 in NW 1.4 mph 9 mph 64.4% 0.00 in 299 W/m2
08:54 28.3 °F 17.4 °F 30.46 in NW 1.2 mph 9 mph 63.4% 0.00 in 283 W/m2
08:59 28.7 °F 17.6 °F 30.46 in NW 2.7 mph 11 mph 62.7% 0.00 in 225 W/m2
09:04 28.9 °F 17 °F 30.46 in NW 5.5 mph 11 mph 60.6% 0.00 in 200 W/m2
09:09 29 °F 16.8 °F 30.46 in NNW 3 mph 11 mph 60% 0.00 in 223 W/m2
09:14 29.1 °F 16.8 °F 30.46 in NW 4.1 mph 13 mph 59.7% 0.00 in 162 W/m2
09:19 29.3 °F 17.2 °F 30.46 in NNW 2.9 mph 14 mph 60.1% 0.00 in 200 W/m2
09:24 29.5 °F 17 °F 30.46 in NW 5.7 mph 15 mph 59.2% 0.00 in 251 W/m2
09:29 29.6 °F 16.7 °F 30.45 in NW 5.4 mph 15 mph 58.2% 0.00 in 265 W/m2
09:34 29.6 °F 16.7 °F 30.45 in NW 5.2 mph 15 mph 58% 0.00 in 406 W/m2
09:39 29.8 °F 17.1 °F 30.45 in NW 5.3 mph 13 mph 58.5% 0.00 in 406 W/m2
09:44 30.2 °F 16.8 °F 30.46 in NNW 5.3 mph 13 mph 57% 0.00 in 439 W/m2
09:49 30.6 °F 16.9 °F 30.45 in NNW 5 mph 13 mph 56.3% 0.00 in 371 W/m2
09:54 31 °F 16.5 °F 30.45 in NW 3.6 mph 13 mph 54.5% 0.00 in 362 W/m2
09:59 31.3 °F 16.7 °F 30.45 in NW 6.1 mph 13 mph 54.2% 0.00 in 362 W/m2
10:04 31.4 °F 16.3 °F 30.45 in NW 5.5 mph 13 mph 53% 0.00 in 517 W/m2
10:09 31.6 °F 16.8 °F 30.45 in NW 3.9 mph 11 mph 53.8% 0.00 in 543 W/m2
10:14 32.1 °F 17.2 °F 30.45 in WNW 2.7 mph 11 mph 53.6% 0.00 in 429 W/m2
10:19 32.5 °F 17.2 °F 30.45 in NNW 1.7 mph 12 mph 52.7% 0.00 in 526 W/m2
10:24 33 °F 18 °F 30.45 in North 2.5 mph 12 mph 53.5% 0.00 in 469 W/m2
10:29 33.5 °F 17.9 °F 30.45 in NNW 3.7 mph 12 mph 52.3% 0.00 in 496 W/m2
10:34 34 °F 17.6 °F 30.45 in WNW 4.2 mph 13 mph 50.8% 0.00 in 633 W/m2
10:39 34.1 °F 16.9 °F 30.45 in WNW 5.9 mph 15 mph 48.9% 0.00 in 647 W/m2
10:44 34.2 °F 17.1 °F 30.45 in WNW 5.2 mph 15 mph 49.2% 0.00 in 647 W/m2
10:49 34.4 °F 17 °F 30.45 in WNW 7.1 mph 15 mph 48.7% 0.00 in 610 W/m2
10:54 34.4 °F 16.8 °F 30.45 in NW 5.2 mph 15 mph 48.2% 0.00 in 610 W/m2
10:59 34.4 °F 17.2 °F 30.45 in NW 2.3 mph 15 mph 48.8% 0.00 in 367 W/m2
11:04 34.5 °F 17.2 °F 30.45 in WNW 5.2 mph 15 mph 48.7% 0.00 in 234 W/m2
11:09 34.8 °F 17.1 °F 30.45 in NW 4.3 mph 10 mph 48% 0.00 in 679 W/m2
11:14 35.2 °F 18.2 °F 30.45 in NW 2.5 mph 10 mph 49.5% 0.00 in 664 W/m2
11:19 35.8 °F 18 °F 30.45 in NW 3.1 mph 10 mph 48% 0.00 in 570 W/m2
11:24 36 °F 17.7 °F 30.45 in North 2.8 mph 14 mph 46.8% 0.00 in 701 W/m2
11:29 36.2 °F 18 °F 30.45 in NNW 1 mph 14 mph 47.2% 0.00 in 707 W/m2
11:34 36.4 °F 18 °F 30.44 in NNW 1.7 mph 14 mph 46.7% 0.00 in 582 W/m2
11:39 36.4 °F 17.4 °F 30.44 in NNW 0.6 mph 10 mph 45.5% 0.00 in 689 W/m2
11:44 36.5 °F 17.5 °F 30.44 in North 2 mph 11 mph 45.7% 0.00 in 397 W/m2
11:49 36.5 °F 17 °F 30.44 in NW 4.3 mph 12 mph 44.5% 0.01 in 223 W/m2
11:54 36.2 °F 17 °F 30.45 in North 1.1 mph 12 mph 45.2% 0.01 in 345 W/m2
11:59 36 °F 17 °F 30.45 in North 4 mph 12 mph 45.5% 0.01 in 271 W/m2
12:00 36 °F 16.7 °F 30.44 in NE 2 mph 12 mph 45% 0.01 in 121 W/m2
12:09 35.7 °F 16.1 °F 30.45 in WNW 5 mph 10 mph 44.3% 0.01 in 626 W/m2
12:14 35.5 °F 16.3 °F 30.45 in NW 3.3 mph 10 mph 45.1% 0.01 in 362 W/m2
12:19 35.5 °F 16.8 °F 30.44 in North 0.4 mph 10 mph 46% 0.01 in 181 W/m2
12:24 35.7 °F 16.8 °F 30.44 in NW 3.4 mph 10 mph 45.7% 0.01 in 130 W/m2
12:29 35.7 °F 16.5 °F 30.44 in NNW 4.9 mph 10 mph 45.1% 0.01 in 364 W/m2
12:34 35.7 °F 16.8 °F 30.44 in North 3 mph 10 mph 45.6% 0.01 in 279 W/m2
12:39 35.6 °F 15.9 °F 30.44 in North 1.2 mph 10 mph 44.1% 0.01 in 413 W/m2
12:44 35.8 °F 16.8 °F 30.44 in NNW 4.8 mph 13 mph 45.5% 0.01 in 413 W/m2
12:49 36.1 °F 16.3 °F 30.44 in NW 4.7 mph 13 mph 44% 0.01 in 179 W/m2
12:54 36.1 °F 16.4 °F 30.44 in NNW 1.5 mph 13 mph 44.2% 0.01 in 248 W/m2
12:59 36.2 °F 16.6 °F 30.44 in NNW 0.6 mph 13 mph 44.4% 0.01 in 218 W/m2
13:04 36.4 °F 16.8 °F 30.43 in NW 1.6 mph 13 mph 44.4% 0.01 in 214 W/m2
13:09 36.6 °F 16.9 °F 30.43 in NW 0.7 mph 7 mph 44.3% 0.00 in 512 W/m2
13:14 36.9 °F 17 °F 30.43 in NNW 3.2 mph 9 mph 43.8% 0.00 in 536 W/m2
13:19 37.2 °F 16.8 °F 30.43 in West 1 mph 9 mph 43% 0.01 in 387 W/m2
13:24 37.3 °F 16.9 °F 30.43 in NW 2 mph 9 mph 43% 0.01 in 269 W/m2
13:29 37.3 °F 16.7 °F 30.43 in WNW 5.3 mph 14 mph 42.7% 0.01 in 251 W/m2
13:34 37.1 °F 16 °F 30.43 in NW 1.6 mph 14 mph 41.7% 0.01 in 211 W/m2
13:39 36.9 °F 16.7 °F 30.43 in North 1.2 mph 9 mph 43.2% 0.01 in 141 W/m2
13:44 37 °F 16.8 °F 30.43 in NW 2.8 mph 11 mph 43.3% 0.01 in 84 W/m2
13:49 37.2 °F 16.5 °F 30.42 in WNW 2.1 mph 11 mph 42.5% 0.01 in 385 W/m2
13:54 37.4 °F 16.8 °F 30.43 in WNW 6.1 mph 13 mph 42.8% 0.01 in 385 W/m2
13:59 37.3 °F 16.2 °F 30.43 in NW 3.3 mph 14 mph 41.6% 0.01 in 121 W/m2
14:04 37.1 °F 15.8 °F 30.43 in NW 5 mph 14 mph 41.4% 0.01 in 139 W/m2
14:09 36.9 °F 15.6 °F 30.43 in NW 1.1 mph 10 mph 41.4% 0.01 in 241 W/m2
14:14 36.8 °F 15.6 °F 30.43 in NNW 1.7 mph 10 mph 41.5% 0.01 in 241 W/m2
14:19 37 °F 16 °F 30.43 in North 2.7 mph 10 mph 42% 0.01 in 90 W/m2
14:24 37.2 °F 16.5 °F 30.43 in NNW 1.6 mph 10 mph 42.5% 0.01 in 121 W/m2
14:29 37.5 °F 16.3 °F 30.43 in NNW 5 mph 12 mph 41.7% 0.01 in 373 W/m2
14:34 37.4 °F 15.6 °F 30.43 in NNW 6.1 mph 12 mph 40.4% 0.01 in 373 W/m2
14:39 37.3 °F 15.5 °F 30.43 in NW 1.4 mph 11 mph 40.4% 0.00 in 225 W/m2
14:44 37.4 °F 15.7 °F 30.44 in WNW 3.1 mph 11 mph 40.7% 0.00 in 225 W/m2
14:49 37.6 °F 15.9 °F 30.44 in West 3.8 mph 13 mph 40.7% 0.00 in 195 W/m2
14:54 37.8 °F 16.2 °F 30.44 in West 1.3 mph 13 mph 41% 0.00 in 496 W/m2
14:59 37.9 °F 16 °F 30.44 in WNW 6.7 mph 14 mph 40.5% 0.00 in 489 W/m2
15:04 37.7 °F 15.8 °F 30.44 in NW 5.3 mph 14 mph 40.3% 0.00 in 318 W/m2
15:09 37.4 °F 15.9 °F 30.44 in West 2.4 mph 13 mph 41% 0.00 in 40 W/m2
15:14 37.1 °F 15.8 °F 30.44 in WSW 3.1 mph 13 mph 41.5% 0.00 in 39 W/m2
15:19 36.8 °F 16.3 °F 30.45 in WNW 5 mph 15 mph 42.8% 0.00 in 37 W/m2
15:24 36.5 °F 15.9 °F 30.44 in WNW 5.7 mph 15 mph 42.5% 0.00 in 37 W/m2
15:29 36.3 °F 15.8 °F 30.44 in WNW 7.8 mph 15 mph 42.6% 0.01 in 35 W/m2
15:34 36.1 °F 15.6 °F 30.45 in WNW 7.1 mph 15 mph 42.8% 0.01 in 35 W/m2
15:39 35.9 °F 15.6 °F 30.44 in WNW 4.8 mph 14 mph 43% 0.01 in 33 W/m2
15:44 35.9 °F 15.6 °F 30.44 in WNW 6.4 mph 14 mph 43% 0.01 in 33 W/m2
15:49 35.9 °F 15.6 °F 30.44 in WNW 4.4 mph 14 mph 43.1% 0.01 in 32 W/m2
15:54 35.8 °F 15.8 °F 30.44 in WNW 4.5 mph 14 mph 43.6% 0.01 in 32 W/m2
15:59 35.7 °F 15.8 °F 30.44 in WNW 5.9 mph 14 mph 43.7% 0.01 in 30 W/m2
16:00 35.7 °F 15.9 °F 30.43 in NW 9 mph 14 mph 44% 0.01 in 28 W/m2
16:09 35.5 °F 15.8 °F 30.44 in WNW 7.7 mph 15 mph 44% 0.01 in 28 W/m2
16:14 35.5 °F 15.7 °F 30.44 in WNW 5.4 mph 15 mph 44% 0.01 in 26 W/m2
16:19 35.3 °F 15.6 °F 30.44 in WNW 6.4 mph 15 mph 44% 0.01 in 26 W/m2
16:24 35.1 °F 15.4 °F 30.43 in WNW 3.7 mph 15 mph 44% 0.01 in 25 W/m2
16:29 35 °F 15.3 °F 30.43 in WNW 4.7 mph 15 mph 44% 0.01 in 25 W/m2
16:34 34.8 °F 15.1 °F 30.43 in WNW 5.9 mph 15 mph 44% 0.01 in 23 W/m2
16:39 34.6 °F 15.2 °F 30.43 in WNW 4.7 mph 12 mph 44.5% 0.00 in 21 W/m2
16:44 34.5 °F 14.9 °F 30.43 in WNW 4.6 mph 12 mph 44.2% 0.00 in 21 W/m2
16:49 34.3 °F 15 °F 30.43 in WNW 2.2 mph 12 mph 44.6% 0.00 in 19 W/m2
16:54 34.2 °F 15.1 °F 30.43 in WNW 2.9 mph 12 mph 45% 0.00 in 18 W/m2
16:59 34.1 °F 14.8 °F 30.43 in West 4.8 mph 12 mph 44.6% 0.00 in 18 W/m2
17:04 33.9 °F 14.7 °F 30.43 in WNW 2.8 mph 12 mph 44.8% 0.00 in 16 W/m2
17:09 33.8 °F 15.4 °F 30.43 in WNW 2 mph 9 mph 46.5% 0.00 in 14 W/m2
17:14 33.5 °F 14.6 °F 30.43 in West 2.4 mph 10 mph 45.1% 0.00 in 12 W/m2
17:19 33.3 °F 14.6 °F 30.43 in WNW 3.3 mph 10 mph 45.7% 0.00 in 11 W/m2
17:24 33.1 °F 14.6 °F 30.43 in WNW 1.8 mph 10 mph 46% 0.00 in 7 W/m2
17:29 32.8 °F 14.4 °F 30.44 in West 1.4 mph 10 mph 46% 0.00 in 5 W/m2
17:34 32.6 °F 14.4 °F 30.44 in West 2.3 mph 10 mph 46.6% 0.00 in 0 W/m2
17:39 32.4 °F 14.4 °F 30.44 in West 0.3 mph 6 mph 47% 0.00 in 0 W/m2
17:44 32.1 °F 14.2 °F 30.44 in West 1 mph 6 mph 47% 0.00 in 0 W/m2
17:49 31.9 °F 13.9 °F 30.44 in West 0.6 mph 6 mph 47% 0.00 in 0 W/m2
17:54 31.6 °F 13.9 °F 30.44 in Calm   6 mph 47.3% 0.00 in 0 W/m2
17:59 31.4 °F 14 °F 30.45 in West 0.1 mph 6 mph 48% 0.00 in 0 W/m2
18:04 31.2 °F 13.8 °F 30.45 in Calm   6 mph 48% 0.00 in 0 W/m2
18:09 30.9 °F 13.5 °F 30.45 in West 0.3 mph 4 mph 48% 0.00 in 0 W/m2
18:14 30.7 °F 13.5 °F 30.45 in West 0.1 mph 4 mph 48.4% 0.00 in 0 W/m2
18:19 30.4 °F 13.6 °F 30.46 in Calm   4 mph 49% 0.00 in 0 W/m2
18:24 30.2 °F 13.5 °F 30.46 in West 0.5 mph 5 mph 49.3% 0.00 in 0 W/m2
18:29 30 °F 13.6 °F 30.46 in West 0.1 mph 5 mph 50% 0.00 in 0 W/m2
18:34 29.8 °F 13.5 °F 30.46 in West 0.1 mph 5 mph 50% 0.00 in 0 W/m2
18:39 29.7 °F 13.4 °F 30.46 in Calm   1 mph 50.3% 0.00 in 0 W/m2
18:44 29.6 °F 13.6 °F 30.46 in Calm   1 mph 50.8% 0.00 in 0 W/m2
18:49 29.4 °F 13.4 °F 30.46 in Calm   1 mph 50.8% 0.00 in 0 W/m2
18:54 29.2 °F 13.4 °F 30.46 in Calm   1 mph 51% 0.00 in 0 W/m2
18:59 29 °F 13.2 °F 30.46 in Calm   1 mph 51% 0.00 in 0 W/m2
19:04 28.9 °F 13.2 °F 30.46 in Calm   1 mph 51.3% 0.00 in 0 W/m2
19:09 28.7 °F 13.3 °F 30.46 in Calm   1 mph 52% 0.00 in 0 W/m2
19:14 28.6 °F 13.3 °F 30.47 in Calm   1 mph 52.3% 0.00 in 0 W/m2
19:19 28.4 °F 13.5 °F 30.47 in Calm   1 mph 53% 0.00 in 0 W/m2
19:24 28.3 °F 13.4 °F 30.47 in Calm   1 mph 53% 0.00 in 0 W/m2
19:29 28.1 °F 13.2 °F 30.47 in Calm   1 mph 53% 0.00 in 0 W/m2
19:34 27.9 °F 13 °F 30.47 in Calm   1 mph 53% 0.00 in 0 W/m2
19:39 27.7 °F 13.1 °F 30.47 in Calm     53.5% 0.00 in 0 W/m2
19:44 27.6 °F 13.1 °F 30.46 in Calm     54% 0.00 in 0 W/m2
19:49 27.4 °F 13 °F 30.46 in Calm     54% 0.00 in 0 W/m2
19:54 27.3 °F 13.2 °F 30.46 in Calm     54.9% 0.00 in 0 W/m2
19:59 27.2 °F 13.1 °F 30.45 in Calm     55% 0.00 in 0 W/m2
20:00 27 °F 13 °F 30.45 in Calm     55% 0.00 in 0 W/m2
20:09 26.9 °F 12.9 °F 30.45 in Calm     55% 0.00 in 0 W/m2
20:14 26.7 °F 12.7 °F 30.45 in Calm     55% 0.00 in 0 W/m2
20:19 26.6 °F 13.1 °F 30.45 in Calm     56.3% 0.00 in 0 W/m2
20:24 26.6 °F 13.7 °F 30.45 in Calm     57.7% 0.00 in 0 W/m2
20:29 26.5 °F 13.5 °F 30.45 in Calm     57.3% 0.00 in 0 W/m2
20:34 26.4 °F 13.2 °F 30.45 in Calm     57% 0.00 in 0 W/m2
20:39 26.3 °F 13.1 °F 30.45 in Calm     57% 0.00 in 0 W/m2
20:44 26.2 °F 13.5 °F 30.45 in Calm     58.2% 0.00 in 0 W/m2
20:49 25.9 °F 13.6 °F 30.45 in Calm     59% 0.00 in 0 W/m2
20:54 25.7 °F 13.4 °F 30.45 in Calm     59% 0.00 in 0 W/m2
20:59 25.5 °F 13.2 °F 30.45 in Calm     59% 0.00 in 0 W/m2
21:04 25.3 °F 13 °F 30.45 in Calm     59% 0.00 in 0 W/m2
21:09 25.2 °F 12.9 °F 30.45 in Calm     59% 0.00 in 0 W/m2
21:14 25.1 °F 12.8 °F 30.45 in Calm     59% 0.00 in 0 W/m2
21:19 25 °F 12.7 °F 30.45 in Calm     59% 0.00 in 0 W/m2
21:24 24.9 °F 12.7 °F 30.44 in Calm     59% 0.00 in 0 W/m2
21:29 24.9 °F 12.5 °F 30.44 in Calm     58.6% 0.00 in 0 W/m2
21:34 24.9 °F 12.4 °F 30.44 in Calm     58.5% 0.00 in 0 W/m2
21:39 24.9 °F 12.4 °F 30.44 in Calm     58.4% 0.00 in 0 W/m2
21:44 24.9 °F 12.5 °F 30.44 in Calm     58.7% 0.00 in 0 W/m2
21:49 24.9 °F 12.8 °F 30.44 in Calm     59.6% 0.00 in 0 W/m2
21:54 24.7 °F 13.2 °F 30.44 in Calm     60.8% 0.00 in 0 W/m2
21:59 24.5 °F 13.3 °F 30.43 in Calm     61.8% 0.00 in 0 W/m2
22:04 24.3 °F 13.7 °F 30.43 in Calm     63.6% 0.00 in 0 W/m2
22:09 23.8 °F 13.7 °F 30.43 in Calm     64.7% 0.00 in 0 W/m2
22:14 23.4 °F 13.5 °F 30.43 in Calm     65.3% 0.00 in 0 W/m2
22:19 23.2 °F 13.3 °F 30.43 in Calm     65.2% 0.00 in 0 W/m2
22:24 23.1 °F 13.1 °F 30.43 in Calm     65% 0.00 in 0 W/m2
22:29 23 °F 13 °F 30.43 in Calm     65% 0.00 in 0 W/m2
22:34 23.1 °F 13.1 °F 30.43 in Calm     65.1% 0.00 in 0 W/m2
22:39 23.2 °F 13.5 °F 30.42 in Calm     66% 0.00 in 0 W/m2
22:44 23.2 °F 13.5 °F 30.42 in Calm     66% 0.00 in 0 W/m2
22:49 23 °F 13.7 °F 30.42 in Calm     66.9% 0.00 in 0 W/m2
22:54 22.9 °F 13.6 °F 30.41 in Calm     67.1% 0.00 in 0 W/m2
22:59 22.9 °F 14 °F 30.41 in Calm     68% 0.00 in 0 W/m2
23:00 23 °F 14 °F 30.41 in Calm     68% 0.00 in 0 W/m2
23:09 23.3 °F 14.1 °F 30.41 in Calm     67.3% 0.00 in 0 W/m2
23:14 23.3 °F 14.1 °F 30.41 in Calm     67.2% 0.00 in 0 W/m2
23:19 23.2 °F 13.9 °F 30.40 in Calm     67% 0.00 in 0 W/m2
23:24 23 °F 14.1 °F 30.40 in Calm     68% 0.00 in 0 W/m2
23:29 22.9 °F 13.7 °F 30.40 in Calm     67.4% 0.00 in 0 W/m2
23:34 22.7 °F 13.8 °F 30.40 in Calm     68% 0.00 in 0 W/m2
23:39 22.5 °F 13.8 °F 30.40 in Calm     68.8% 0.00 in 0 W/m2
23:44 22.2 °F 13.6 °F 30.39 in Calm     69% 0.00 in 0 W/m2
23:49 21.8 °F 13.4 °F 30.39 in Calm     69.7% 0.00 in 0 W/m2
23:54 21.5 °F 13.3 °F 30.39 in Calm     70.2% 0.00 in 0 W/m2
23:59 21.3 °F 13.4 °F 30.40 in Calm     71% 0.00 in 0 W/m2
Hartford County Weather
Compliments of Weather Underground - 4 mb